Time;durP1;ratioP1;P1;durP2;ratioP2;P2;SDS_P1;SDS_P2;PMS_P1;PMS_P2;Temp;Humidity;BMP_temperature;BMP_pressure;BME280_temperature;BME280_humidity;BME280_pressure;Samples;Min_cycle;Max_cycle;Signal;HPM_P1;HPM_P2
2024/02/22 00:02:17;;;;;;;2.00;1.70;;;11.50;33.80;;;;;;4975465;28;20267;-63
2024/02/22 00:04:43;;;;;;;1.93;1.83;;;11.60;33.50;;;;;;4975228;28;20220;-63
2024/02/22 00:07:14;;;;;;;1.70;1.60;;;11.60;33.10;;;;;;4975152;28;20295;-63
2024/02/22 00:09:40;;;;;;;1.90;1.80;;;11.70;33.10;;;;;;4973779;28;20299;-63
2024/02/22 00:12:07;;;;;;;2.00;1.90;;;11.70;33.10;;;;;;4979397;28;20224;-63
2024/02/22 00:14:34;;;;;;;1.70;1.60;;;11.80;32.70;;;;;;4974562;28;20211;-63
2024/02/22 00:17:00;;;;;;;1.70;1.60;;;11.90;32.50;;;;;;4969612;28;20270;-64
2024/02/22 00:19:27;;;;;;;1.70;1.60;;;11.90;32.80;;;;;;4973961;28;20207;-63
2024/02/22 00:21:54;;;;;;;1.50;1.40;;;11.90;32.80;;;;;;4973294;28;20319;-63
2024/02/22 00:24:21;;;;;;;1.90;1.60;;;11.90;32.90;;;;;;4974501;28;20676;-63
2024/02/22 00:26:48;;;;;;;2.00;1.80;;;11.90;33.30;;;;;;4974645;28;20274;-64
2024/02/22 00:29:14;;;;;;;1.80;1.70;;;11.80;33.90;;;;;;4975227;28;20321;-63
2024/02/22 00:31:41;;;;;;;2.23;1.80;;;11.90;34.50;;;;;;4973776;28;20227;-63
2024/02/22 00:34:07;;;;;;;1.80;1.70;;;11.80;34.70;;;;;;4967277;28;20219;-63
2024/02/22 00:36:34;;;;;;;1.50;1.40;;;11.80;35.30;;;;;;4974104;28;20208;-63
2024/02/22 00:38:59;;;;;;;1.87;1.60;;;11.70;36.00;;;;;;4975787;28;20264;-63
2024/02/22 00:41:26;;;;;;;1.60;1.50;;;11.60;36.10;;;;;;4977463;28;20227;-63
2024/02/22 00:43:53;;;;;;;1.60;1.50;;;11.60;36.70;;;;;;4979081;28;20211;-63
2024/02/22 00:46:19;;;;;;;1.50;1.40;;;11.60;36.70;;;;;;4979047;28;20239;-63
2024/02/22 00:48:46;;;;;;;2.10;1.57;;;11.50;37.70;;;;;;4975430;28;20219;-63
2024/02/22 00:51:12;;;;;;;1.80;1.70;;;11.50;37.40;;;;;;4973712;28;20224;-63
2024/02/22 00:53:39;;;;;;;1.60;1.50;;;11.50;37.80;;;;;;4974109;28;20215;-63
2024/02/22 00:56:05;;;;;;;2.53;1.70;;;11.50;38.40;;;;;;4974252;28;20223;-63
2024/02/22 00:58:32;;;;;;;1.83;1.73;;;11.50;38.90;;;;;;4974148;28;20212;-63
2024/02/22 01:00:59;;;;;;;1.93;1.80;;;11.40;39.70;;;;;;4974149;28;20271;-63
2024/02/22 01:03:28;;;;;;;1.90;1.80;;;11.30;40.60;;;;;;4972675;28;20781;-63
2024/02/22 01:05:54;;;;;;;1.53;1.43;;;11.30;41.00;;;;;;4973540;28;20212;-63
2024/02/22 01:08:21;;;;;;;1.70;1.60;;;11.40;41.10;;;;;;4974698;28;20289;-63
2024/02/22 01:10:50;;;;;;;1.70;1.60;;;11.40;41.70;;;;;;4974632;28;20219;-63
2024/02/22 01:13:16;;;;;;;1.30;1.27;;;11.30;42.00;;;;;;4972994;28;20294;-63
2024/02/22 01:15:43;;;;;;;1.80;1.67;;;11.30;42.70;;;;;;4972996;28;20215;-64
2024/02/22 01:18:09;;;;;;;2.63;1.60;;;11.40;43.00;;;;;;4967765;28;20232;-64
2024/02/22 01:20:36;;;;;;;1.87;1.73;;;11.40;43.10;;;;;;4976228;28;20212;-64
2024/02/22 01:23:06;;;;;;;1.87;1.73;;;11.40;43.60;;;;;;4972984;28;20614;-64
2024/02/22 01:25:32;;;;;;;1.50;1.40;;;11.40;44.20;;;;;;4973316;28;20222;-64
2024/02/22 01:27:59;;;;;;;1.67;1.57;;;11.50;44.30;;;;;;4973279;28;20265;-64
2024/02/22 01:30:25;;;;;;;1.20;1.20;;;11.50;44.70;;;;;;4973535;28;20257;-64
2024/02/22 01:32:52;;;;;;;1.77;1.63;;;11.50;44.90;;;;;;4972322;28;20231;-64
2024/02/22 01:35:18;;;;;;;2.00;1.40;;;11.50;45.40;;;;;;4975107;28;20355;-64
2024/02/22 01:37:45;;;;;;;1.50;1.40;;;11.50;45.90;;;;;;4975583;28;20211;-64
2024/02/22 01:40:12;;;;;;;1.27;1.20;;;11.40;45.80;;;;;;4974551;28;20223;-64
2024/02/22 01:42:38;;;;;;;1.30;1.30;;;11.40;46.80;;;;;;4973273;28;20767;-64
2024/02/22 01:45:05;;;;;;;1.27;1.20;;;11.30;46.40;;;;;;4972424;28;20255;-64
2024/02/22 01:47:32;;;;;;;1.47;1.37;;;11.30;48.00;;;;;;4973211;28;20293;-64
2024/02/22 01:49:58;;;;;;;1.30;1.30;;;11.40;47.30;;;;;;4973258;28;20219;-64
2024/02/22 01:52:25;;;;;;;1.30;1.20;;;11.40;47.60;;;;;;4976828;28;20228;-64
2024/02/22 01:54:51;;;;;;;1.30;1.23;;;11.40;48.60;;;;;;4974115;28;20214;-64
2024/02/22 01:57:18;;;;;;;1.47;1.20;;;11.30;48.80;;;;;;4972170;28;20267;-64
2024/02/22 01:59:44;;;;;;;1.20;1.20;;;11.30;48.90;;;;;;4973006;28;20742;-63
2024/02/22 02:02:11;;;;;;;1.27;1.17;;;11.30;48.50;;;;;;4972768;28;20282;-64
2024/02/22 02:04:37;;;;;;;1.37;1.27;;;11.30;48.70;;;;;;4972403;28;20212;-63
2024/02/22 02:07:04;;;;;;;1.20;1.20;;;11.30;48.60;;;;;;4971710;28;20208;-64
2024/02/22 02:09:30;;;;;;;1.43;1.33;;;11.30;49.40;;;;;;4973313;28;20226;-64
2024/02/22 02:11:57;;;;;;;1.30;1.20;;;11.20;50.10;;;;;;4972357;28;20590;-64
2024/02/22 02:14:23;;;;;;;1.23;1.23;;;11.20;49.20;;;;;;4972485;28;20215;-64
2024/02/22 02:16:50;;;;;;;1.10;1.10;;;11.20;49.90;;;;;;4971863;28;20211;-64
2024/02/22 02:19:17;;;;;;;1.07;1.03;;;11.20;50.10;;;;;;4972083;28;20216;-63
2024/02/22 02:21:43;;;;;;;1.50;1.40;;;11.20;50.10;;;;;;4972366;28;20506;-64
2024/02/22 02:24:10;;;;;;;1.23;1.23;;;11.10;50.10;;;;;;4972354;28;20262;-64
2024/02/22 02:26:36;;;;;;;1.87;1.77;;;11.10;50.00;;;;;;4972365;28;20215;-64
2024/02/22 02:29:03;;;;;;;1.07;1.00;;;11.20;50.10;;;;;;4972772;28;20235;-64
2024/02/22 02:31:30;;;;;;;1.10;1.10;;;11.00;50.60;;;;;;4972601;28;20230;-64
2024/02/22 02:33:56;;;;;;;1.20;1.20;;;11.10;50.50;;;;;;4972841;28;20290;-64
2024/02/22 02:36:23;;;;;;;1.60;1.40;;;11.10;50.00;;;;;;4971378;28;20215;-64
2024/02/22 02:38:49;;;;;;;1.10;1.10;;;11.00;50.40;;;;;;4972031;28;20286;-64
2024/02/22 02:41:16;;;;;;;2.40;1.17;;;11.10;50.50;;;;;;4972624;28;20242;-64
2024/02/22 02:43:42;;;;;;;1.30;1.10;;;11.10;50.90;;;;;;4972780;28;20434;-64
2024/02/22 02:46:09;;;;;;;1.10;1.10;;;11.00;51.00;;;;;;4972081;28;20283;-64
2024/02/22 02:48:35;;;;;;;1.00;1.00;;;11.10;51.30;;;;;;4972515;28;20614;-64
2024/02/22 02:51:03;;;;;;;1.10;1.10;;;11.10;50.80;;;;;;4971902;28;20221;-64
2024/02/22 02:53:30;;;;;;;1.37;1.30;;;11.10;50.50;;;;;;4972116;28;20667;-64
2024/02/22 02:55:56;;;;;;;1.17;1.17;;;11.10;50.60;;;;;;4971374;28;20238;-64
2024/02/22 02:58:23;;;;;;;1.20;1.17;;;11.00;51.20;;;;;;4972159;28;20220;-64
2024/02/22 03:00:49;;;;;;;1.27;1.27;;;11.00;50.60;;;;;;4972645;28;20265;-64
2024/02/22 03:03:16;;;;;;;1.17;1.03;;;11.00;51.00;;;;;;4972124;28;20227;-64
2024/02/22 03:05:42;;;;;;;1.10;1.10;;;10.90;50.50;;;;;;4971183;28;20219;-64
2024/02/22 03:08:09;;;;;;;1.30;1.20;;;10.80;50.90;;;;;;4971847;28;20278;-64
2024/02/22 03:10:36;;;;;;;1.50;1.40;;;10.90;50.80;;;;;;4974122;28;20270;-64
2024/02/22 03:13:02;;;;;;;1.43;1.33;;;10.90;50.60;;;;;;4975794;28;20660;-64
2024/02/22 03:15:29;;;;;;;1.77;1.40;;;11.00;50.40;;;;;;4974999;28;20203;-64
2024/02/22 03:17:55;;;;;;;1.00;1.00;;;10.90;50.30;;;;;;4979919;28;20278;-64
2024/02/22 03:20:22;;;;;;;1.30;1.27;;;10.90;49.80;;;;;;4974883;28;20245;-63
2024/02/22 03:22:48;;;;;;;1.53;1.20;;;10.90;49.80;;;;;;4975444;28;20238;-64
2024/02/22 03:25:15;;;;;;;1.37;1.33;;;11.00;49.00;;;;;;4975352;28;20690;-64
2024/02/22 03:27:44;;;;;;;1.43;1.33;;;11.00;48.90;;;;;;4973424;28;20666;-64
2024/02/22 03:30:12;;;;;;;1.20;1.20;;;11.00;48.80;;;;;;4974896;28;20836;-64
2024/02/22 03:32:38;;;;;;;1.57;1.47;;;10.90;48.80;;;;;;4975009;28;20710;-64
2024/02/22 03:35:05;;;;;;;1.50;1.40;;;10.90;48.10;;;;;;4978959;28;20219;-64
2024/02/22 03:37:32;;;;;;;1.30;1.30;;;10.90;48.40;;;;;;4975078;28;20211;-64
2024/02/22 03:39:58;;;;;;;1.27;1.27;;;10.90;49.00;;;;;;4975369;28;20250;-64
2024/02/22 03:42:25;;;;;;;1.47;1.47;;;10.90;49.20;;;;;;4974871;28;20266;-64
2024/02/22 03:44:51;;;;;;;1.60;1.50;;;10.80;48.90;;;;;;4975168;28;20219;-64
2024/02/22 03:47:18;;;;;;;1.60;1.50;;;10.70;48.60;;;;;;4974454;28;20209;-64
2024/02/22 03:49:46;;;;;;;2.00;1.60;;;10.60;48.20;;;;;;4975118;28;20614;-64
2024/02/22 03:52:13;;;;;;;2.60;1.97;;;10.60;47.70;;;;;;4975189;28;20246;-64
2024/02/22 03:54:40;;;;;;;1.60;1.50;;;10.60;47.40;;;;;;4974985;28;20217;-64
2024/02/22 03:57:06;;;;;;;2.10;1.40;;;10.50;46.90;;;;;;4974756;28;20218;-64
2024/02/22 03:59:33;;;;;;;1.80;1.70;;;10.50;46.00;;;;;;4974895;28;20590;-64
2024/02/22 04:01:59;;;;;;;1.50;1.40;;;10.60;45.80;;;;;;4974732;28;20286;-64
2024/02/22 04:04:26;;;;;;;1.53;1.43;;;10.60;45.00;;;;;;4974494;28;20513;-63
2024/02/22 04:06:52;;;;;;;1.30;1.30;;;10.50;45.00;;;;;;4973741;28;20214;-64
2024/02/22 04:09:19;;;;;;;1.33;1.33;;;10.50;45.00;;;;;;4978849;28;20260;-64
2024/02/22 04:11:46;;;;;;;1.80;1.70;;;10.40;44.90;;;;;;4974564;28;20238;-64
2024/02/22 04:14:13;;;;;;;1.60;1.50;;;10.40;44.90;;;;;;4974452;28;20215;-64
2024/02/22 04:16:39;;;;;;;1.83;1.73;;;10.50;45.00;;;;;;4974142;28;20206;-64
2024/02/22 04:19:06;;;;;;;1.67;1.57;;;10.50;44.20;;;;;;4967597;28;20230;-64
2024/02/22 04:21:33;;;;;;;1.70;1.60;;;10.50;44.40;;;;;;4972646;28;20668;-64
2024/02/22 04:23:59;;;;;;;1.70;1.60;;;10.60;44.10;;;;;;4974934;28;20289;-64
2024/02/22 04:26:26;;;;;;;1.77;1.60;;;10.50;44.40;;;;;;4978790;28;20205;-64
2024/02/22 04:28:52;;;;;;;2.60;1.50;;;10.50;43.60;;;;;;4974457;28;20268;-64
2024/02/22 04:31:19;;;;;;;1.70;1.60;;;10.50;43.80;;;;;;4972882;28;20367;-64
2024/02/22 04:33:45;;;;;;;1.77;1.67;;;10.50;43.90;;;;;;4974362;28;20768;-64
2024/02/22 04:36:13;;;;;;;1.70;1.60;;;10.60;43.80;;;;;;4973417;28;20297;-64
2024/02/22 04:38:40;;;;;;;1.60;1.50;;;10.50;44.20;;;;;;4974231;28;20301;-63
2024/02/22 04:41:07;;;;;;;1.60;1.50;;;10.40;44.00;;;;;;4975191;28;20210;-64
2024/02/22 04:43:34;;;;;;;1.57;1.47;;;10.40;44.40;;;;;;4981881;28;20580;-64
2024/02/22 04:46:00;;;;;;;1.60;1.50;;;10.40;44.60;;;;;;4976239;28;20209;-64
2024/02/22 04:48:27;;;;;;;1.70;1.60;;;10.40;44.30;;;;;;4975179;28;20214;-64
2024/02/22 04:50:53;;;;;;;1.70;1.60;;;10.50;44.10;;;;;;4973338;28;20206;-64
2024/02/22 04:53:20;;;;;;;1.90;1.77;;;10.50;44.10;;;;;;4973822;28;20252;-64
2024/02/22 04:55:47;;;;;;;1.70;1.60;;;10.40;44.70;;;;;;4973794;28;20214;-64
2024/02/22 04:58:13;;;;;;;1.50;1.40;;;10.40;44.20;;;;;;4973624;28;20234;-64
2024/02/22 05:00:40;;;;;;;1.80;1.70;;;10.40;43.40;;;;;;4978125;28;20294;-64
2024/02/22 05:03:07;;;;;;;1.60;1.50;;;10.50;43.90;;;;;;4973628;28;20330;-64
2024/02/22 05:05:34;;;;;;;2.20;2.00;;;10.50;43.90;;;;;;4973653;28;20261;-64
2024/02/22 05:08:01;;;;;;;1.70;1.60;;;10.50;43.80;;;;;;4972965;28;20217;-64
2024/02/22 05:10:27;;;;;;;1.67;1.57;;;10.50;44.00;;;;;;4973951;28;20241;-64
2024/02/22 05:12:54;;;;;;;1.90;1.80;;;10.40;44.70;;;;;;4973838;28;20292;-64
2024/02/22 05:15:21;;;;;;;2.13;1.90;;;10.40;45.10;;;;;;4972703;28;20206;-64
2024/02/22 05:17:47;;;;;;;1.83;1.73;;;10.40;43.90;;;;;;4977917;28;20213;-64
2024/02/22 05:20:14;;;;;;;1.50;1.40;;;10.40;43.70;;;;;;4972232;28;20269;-64
2024/02/22 05:22:40;;;;;;;1.80;1.70;;;10.40;43.60;;;;;;4973093;28;20289;-64
2024/02/22 05:25:08;;;;;;;1.93;1.80;;;10.40;44.10;;;;;;4973131;28;20239;-64
2024/02/22 05:27:34;;;;;;;2.83;1.70;;;10.40;44.00;;;;;;4972847;28;20232;-64
2024/02/22 05:30:01;;;;;;;1.80;1.70;;;10.40;43.70;;;;;;4973762;28;20211;-64
2024/02/22 05:32:30;;;;;;;1.90;1.80;;;10.40;43.90;;;;;;4972767;28;20234;-63
2024/02/22 05:34:57;;;;;;;2.30;1.60;;;10.40;44.30;;;;;;4977540;28;20214;-64
2024/02/22 05:37:23;;;;;;;2.13;1.70;;;10.50;45.00;;;;;;4972644;28;20206;-64
2024/02/22 05:39:50;;;;;;;2.70;1.97;;;10.40;44.60;;;;;;4973418;28;20214;-62
2024/02/22 05:42:16;;;;;;;1.70;1.60;;;10.40;44.20;;;;;;4973012;28;20237;-62
2024/02/22 05:44:43;;;;;;;1.70;1.60;;;10.50;43.90;;;;;;4972966;28;20245;-62
2024/02/22 05:47:09;;;;;;;1.67;1.57;;;10.50;43.60;;;;;;4972189;28;20215;-62
2024/02/22 05:49:36;;;;;;;1.80;1.70;;;10.60;43.70;;;;;;4972731;28;20652;-62
2024/02/22 05:52:02;;;;;;;1.60;1.50;;;10.60;43.90;;;;;;4972721;28;20244;-62
2024/02/22 05:54:29;;;;;;;1.63;1.53;;;10.60;45.80;;;;;;4972849;28;20731;-62
2024/02/22 05:56:56;;;;;;;1.90;1.80;;;10.60;43.90;;;;;;4972010;28;20218;-63
2024/02/22 05:59:23;;;;;;;2.53;1.90;;;10.70;42.70;;;;;;4972885;28;20273;-62
2024/02/22 06:01:49;;;;;;;1.87;1.70;;;10.70;43.10;;;;;;4972401;28;20230;-62
2024/02/22 06:04:16;;;;;;;2.97;1.90;;;10.70;43.20;;;;;;4972696;28;20235;-62
2024/02/22 06:06:42;;;;;;;1.90;1.80;;;10.60;43.80;;;;;;4971274;28;20219;-62
2024/02/22 06:09:09;;;;;;;2.20;2.00;;;10.50;44.00;;;;;;4977301;28;20284;-63
2024/02/22 06:11:35;;;;;;;1.90;1.80;;;10.70;43.80;;;;;;4972254;28;20231;-62
2024/02/22 06:14:02;;;;;;;2.10;1.90;;;10.70;43.60;;;;;;4972762;28;20264;-63
2024/02/22 06:16:28;;;;;;;1.77;1.67;;;10.70;42.70;;;;;;4971731;28;20215;-63
2024/02/22 06:18:55;;;;;;;2.60;2.10;;;10.70;43.40;;;;;;4972404;28;20221;-63
2024/02/22 06:21:22;;;;;;;1.93;1.83;;;10.80;42.50;;;;;;4971448;28;20258;-63
2024/02/22 06:23:48;;;;;;;2.63;2.23;;;10.80;43.30;;;;;;4972177;28;20227;-63
2024/02/22 06:26:15;;;;;;;2.03;1.73;;;10.80;43.40;;;;;;4972794;28;20281;-63
2024/02/22 06:28:41;;;;;;;2.70;2.00;;;10.80;43.40;;;;;;4969204;28;20297;-63
2024/02/22 06:31:08;;;;;;;2.03;1.93;;;10.80;43.60;;;;;;4972302;28;20821;-63
2024/02/22 06:33:35;;;;;;;2.43;2.03;;;10.80;43.30;;;;;;4972390;28;20677;-63
2024/02/22 06:36:01;;;;;;;2.30;2.10;;;10.70;43.60;;;;;;4971172;28;20623;-63
2024/02/22 06:38:28;;;;;;;1.80;1.70;;;10.70;43.60;;;;;;4972179;28;20566;-63
2024/02/22 06:40:54;;;;;;;2.63;1.80;;;10.70;43.70;;;;;;4972567;28;20804;-63
2024/02/22 06:43:21;;;;;;;1.90;1.80;;;10.60;43.70;;;;;;4972126;28;20223;-63
2024/02/22 06:45:48;;;;;;;1.90;1.80;;;10.70;44.60;;;;;;4975108;28;20209;-63
2024/02/22 06:48:14;;;;;;;2.57;2.10;;;10.60;44.60;;;;;;4975233;28;20684;-63
2024/02/22 06:50:41;;;;;;;2.10;1.90;;;10.60;44.40;;;;;;4975791;28;20232;-63
2024/02/22 06:53:07;;;;;;;2.20;2.00;;;10.70;44.40;;;;;;4976091;28;20265;-63
2024/02/22 06:55:34;;;;;;;2.40;2.20;;;10.60;44.70;;;;;;4976286;28;20214;-63
2024/02/22 06:58:00;;;;;;;2.20;2.10;;;10.60;45.00;;;;;;4975722;28;20204;-63
2024/02/22 07:00:27;;;;;;;3.73;2.63;;;10.60;45.00;;;;;;4975808;28;20277;-63
2024/02/22 07:02:53;;;;;;;4.27;2.80;;;10.50;45.60;;;;;;4975992;28;20270;-63
2024/02/22 07:05:20;;;;;;;3.80;2.60;;;10.50;46.50;;;;;;4975283;28;20647;-63
2024/02/22 07:07:47;;;;;;;4.83;2.50;;;10.50;46.40;;;;;;4975116;28;20273;-63
2024/02/22 07:10:15;;;;;;;2.60;2.40;;;10.50;47.00;;;;;;4976084;28;20214;-63
2024/02/22 07:12:42;;;;;;;2.70;2.50;;;10.40;48.60;;;;;;4975839;28;20296;-63
2024/02/22 07:15:08;;;;;;;3.40;2.60;;;10.40;48.40;;;;;;4976760;28;20218;-63
2024/02/22 07:17:35;;;;;;;2.60;2.40;;;10.40;48.20;;;;;;4974574;28;20269;-63
2024/02/22 07:20:01;;;;;;;2.63;2.43;;;10.40;48.80;;;;;;4971583;28;20215;-63
2024/02/22 07:22:28;;;;;;;2.80;2.37;;;10.40;48.20;;;;;;4975915;28;20281;-63
2024/02/22 07:24:54;;;;;;;2.60;2.33;;;10.40;48.30;;;;;;4975571;28;20233;-63
2024/02/22 07:27:21;;;;;;;3.50;2.77;;;10.40;49.40;;;;;;4975516;28;20215;-63
2024/02/22 07:29:47;;;;;;;2.93;2.73;;;10.30;49.50;;;;;;4974796;28;20264;-63
2024/02/22 07:32:14;;;;;;;3.43;3.13;;;10.30;50.50;;;;;;4976870;28;20589;-63
2024/02/22 07:34:40;;;;;;;4.47;2.93;;;10.30;50.70;;;;;;4977839;28;20209;-63
2024/02/22 07:37:07;;;;;;;3.40;3.10;;;10.30;51.20;;;;;;4975467;28;20225;-63
2024/02/22 07:39:33;;;;;;;3.33;3.03;;;10.30;51.00;;;;;;4975479;28;20269;-63
2024/02/22 07:42:00;;;;;;;4.90;3.30;;;10.20;52.30;;;;;;4975149;28;20230;-63
2024/02/22 07:44:27;;;;;;;4.60;3.10;;;10.20;51.20;;;;;;4975019;28;20290;-63
2024/02/22 07:46:54;;;;;;;3.77;3.37;;;10.20;52.40;;;;;;4975528;28;20637;-63
2024/02/22 07:49:21;;;;;;;5.10;3.07;;;10.10;52.30;;;;;;4977893;28;20214;-62
2024/02/22 07:51:47;;;;;;;3.40;3.10;;;10.10;52.80;;;;;;4976367;28;20591;-63
2024/02/22 07:54:14;;;;;;;3.13;2.90;;;10.10;53.60;;;;;;4975856;28;20258;-63
2024/02/22 07:56:40;;;;;;;3.10;2.80;;;10.20;52.40;;;;;;4975563;28;20214;-63
2024/02/22 07:59:08;;;;;;;4.20;3.10;;;10.10;51.80;;;;;;4975875;28;20265;-63
2024/02/22 08:01:35;;;;;;;3.37;2.93;;;10.20;53.00;;;;;;4974158;28;20217;-63
2024/02/22 08:04:02;;;;;;;3.30;3.00;;;10.10;52.10;;;;;;4969998;28;20638;-63
2024/02/22 08:06:28;;;;;;;3.33;3.03;;;10.20;52.20;;;;;;4976040;28;20270;-63
2024/02/22 08:08:55;;;;;;;3.63;3.07;;;10.20;52.60;;;;;;4976216;28;20237;-63
2024/02/22 08:11:24;;;;;;;3.73;3.43;;;10.10;52.80;;;;;;4975557;28;20225;-63
2024/02/22 08:13:51;;;;;;;3.07;2.77;;;10.00;54.10;;;;;;4975498;28;20301;-63
2024/02/22 08:16:17;;;;;;;3.63;3.10;;;10.10;54.30;;;;;;4976772;28;20237;-63
2024/02/22 08:18:44;;;;;;;3.20;2.90;;;10.00;54.60;;;;;;4977288;28;20226;-63
2024/02/22 08:21:10;;;;;;;3.37;3.07;;;10.10;54.20;;;;;;4976050;28;20296;-63
2024/02/22 08:23:37;;;;;;;3.30;3.00;;;10.10;54.70;;;;;;4975646;28;20206;-63
2024/02/22 08:26:03;;;;;;;3.90;3.50;;;10.00;54.50;;;;;;4974762;28;20250;-63
2024/02/22 08:28:30;;;;;;;3.37;3.07;;;10.00;54.10;;;;;;4975012;28;20219;-63
2024/02/22 08:30:56;;;;;;;3.50;3.17;;;10.00;55.70;;;;;;4975042;28;20226;-63
2024/02/22 08:33:23;;;;;;;4.97;3.33;;;10.00;56.20;;;;;;4973956;28;20293;-63
2024/02/22 08:35:50;;;;;;;3.30;3.00;;;10.00;56.80;;;;;;4974152;28;20307;-63
2024/02/22 08:38:16;;;;;;;3.83;3.13;;;10.00;55.30;;;;;;4974216;28;20217;-63
2024/02/22 08:40:43;;;;;;;3.40;3.10;;;9.90;56.80;;;;;;4979057;28;20213;-63
2024/02/22 08:43:10;;;;;;;4.07;3.53;;;9.90;56.80;;;;;;4973802;28;20234;-63
2024/02/22 08:45:36;;;;;;;5.00;3.40;;;10.00;55.30;;;;;;4973965;28;20613;-63
2024/02/22 08:48:03;;;;;;;4.30;3.30;;;10.00;55.30;;;;;;4974178;28;20211;-63
2024/02/22 08:50:30;;;;;;;3.67;3.10;;;9.90;56.20;;;;;;4974471;28;20364;-63
2024/02/22 08:52:56;;;;;;;3.50;2.90;;;9.90;55.90;;;;;;4973361;28;20725;-63
2024/02/22 08:55:24;;;;;;;3.87;3.13;;;9.90;55.70;;;;;;4974323;28;20293;-63
2024/02/22 08:57:51;;;;;;;4.17;3.23;;;9.90;56.80;;;;;;4977605;28;20686;-63
2024/02/22 09:00:19;;;;;;;4.13;2.63;;;9.80;57.70;;;;;;4974045;28;20594;-63
2024/02/22 09:02:45;;;;;;;4.40;3.30;;;9.80;57.60;;;;;;4974816;28;20273;-63
2024/02/22 09:05:12;;;;;;;4.03;3.30;;;9.80;58.30;;;;;;4974591;28;20721;-63
2024/02/22 09:07:38;;;;;;;3.57;3.03;;;9.90;57.70;;;;;;4973205;28;20265;-63
2024/02/22 09:10:06;;;;;;;3.30;2.80;;;9.90;57.20;;;;;;4975137;28;20215;-63
2024/02/22 09:12:32;;;;;;;3.30;3.07;;;9.90;57.10;;;;;;4975155;28;20238;-63
2024/02/22 09:14:59;;;;;;;6.43;3.70;;;9.90;57.60;;;;;;4976201;28;20202;-63
2024/02/22 09:17:26;;;;;;;3.63;3.33;;;9.80;57.90;;;;;;4968709;28;20209;-63
2024/02/22 09:19:53;;;;;;;3.53;3.23;;;9.90;58.30;;;;;;4972780;28;20210;-63
2024/02/22 09:22:20;;;;;;;4.37;3.50;;;9.90;58.80;;;;;;4972923;28;20226;-63
2024/02/22 09:24:46;;;;;;;4.07;3.40;;;10.00;58.00;;;;;;4973016;28;20288;-63
2024/02/22 09:27:13;;;;;;;4.67;3.37;;;10.00;57.90;;;;;;4973308;28;20273;-63
2024/02/22 09:29:39;;;;;;;3.40;3.10;;;10.00;57.90;;;;;;4973440;28;20273;-63
2024/02/22 09:32:06;;;;;;;3.80;3.50;;;10.10;56.20;;;;;;4973706;28;20727;-63
2024/02/22 09:34:33;;;;;;;4.63;3.60;;;10.00;57.60;;;;;;4972724;28;20210;-63
2024/02/22 09:36:59;;;;;;;4.47;4.07;;;10.00;57.90;;;;;;4973066;28;20674;-63
2024/02/22 09:39:26;;;;;;;4.57;3.80;;;10.00;57.90;;;;;;4973474;28;20211;-63
2024/02/22 09:41:52;;;;;;;4.63;3.70;;;10.00;57.90;;;;;;4973083;28;20230;-65
2024/02/22 09:44:19;;;;;;;3.80;3.50;;;9.90;58.30;;;;;;4971625;28;20557;-63
2024/02/22 09:46:46;;;;;;;4.17;3.77;;;10.10;58.00;;;;;;4971980;28;20220;-63
2024/02/22 09:49:13;;;;;;;5.23;3.70;;;9.90;57.80;;;;;;4977702;28;20214;-63
2024/02/22 09:51:39;;;;;;;4.30;3.40;;;9.90;58.80;;;;;;4972932;28;20232;-63
2024/02/22 09:54:06;;;;;;;4.57;3.57;;;9.80;59.70;;;;;;4972805;28;20217;-63
2024/02/22 09:56:33;;;;;;;3.40;3.10;;;9.80;60.50;;;;;;4973106;28;20260;-63
2024/02/22 09:59:00;;;;;;;7.73;4.37;;;9.80;60.20;;;;;;4972051;28;20696;-63
2024/02/22 10:01:27;;;;;;;4.37;3.63;;;9.70;60.30;;;;;;4971898;28;20353;-63
2024/02/22 10:03:53;;;;;;;3.97;3.30;;;9.70;61.30;;;;;;4973105;28;20563;-63
2024/02/22 10:06:20;;;;;;;4.17;3.70;;;9.70;61.20;;;;;;4973424;28;20206;-63
2024/02/22 10:08:46;;;;;;;3.77;3.43;;;9.80;60.80;;;;;;4973330;28;20220;-63
2024/02/22 10:11:13;;;;;;;3.60;3.30;;;9.80;61.00;;;;;;4972343;28;20652;-63
2024/02/22 10:13:40;;;;;;;4.00;3.60;;;9.90;60.40;;;;;;4972548;28;20201;-63
2024/02/22 10:16:07;;;;;;;4.43;3.63;;;9.80;60.90;;;;;;4973111;28;20285;-62
2024/02/22 10:18:35;;;;;;;5.90;3.47;;;9.80;60.80;;;;;;4972348;28;20229;-63
2024/02/22 10:21:01;;;;;;;4.07;3.53;;;9.90;61.40;;;;;;4963936;28;20231;-63
2024/02/22 10:23:28;;;;;;;4.67;3.83;;;10.00;60.00;;;;;;4976746;28;20565;-63
2024/02/22 10:25:54;;;;;;;3.50;3.17;;;10.00;59.70;;;;;;4972838;28;20237;-63
2024/02/22 10:28:21;;;;;;;4.30;3.63;;;10.20;60.50;;;;;;4972560;28;20216;-63
2024/02/22 10:30:48;;;;;;;4.97;3.90;;;10.10;60.00;;;;;;4973224;28;20218;-62
2024/02/22 10:33:14;;;;;;;4.47;3.57;;;10.10;59.60;;;;;;4971478;28;20304;-63
2024/02/22 10:35:43;;;;;;;4.33;3.93;;;10.20;59.80;;;;;;4972630;28;20214;-63
2024/02/22 10:38:11;;;;;;;4.37;3.97;;;10.20;59.80;;;;;;4971793;28;20218;-63
2024/02/22 10:40:38;;;;;;;5.77;3.53;;;10.10;60.00;;;;;;4977708;28;20217;-63
2024/02/22 10:43:04;;;;;;;4.37;3.63;;;10.20;59.70;;;;;;4970995;28;20226;-63
2024/02/22 10:45:31;;;;;;;3.67;3.37;;;10.00;60.20;;;;;;4972660;28;20232;-62
2024/02/22 10:47:58;;;;;;;5.03;3.73;;;9.90;61.20;;;;;;4971057;28;20222;-63
2024/02/22 10:50:24;;;;;;;3.80;3.50;;;9.80;61.70;;;;;;4978168;28;20243;-63
2024/02/22 10:52:51;;;;;;;3.83;3.50;;;9.80;61.60;;;;;;4971703;28;20698;-63
2024/02/22 10:55:17;;;;;;;4.30;3.90;;;9.90;61.10;;;;;;4972276;28;20210;-63
2024/02/22 10:57:44;;;;;;;4.10;3.80;;;9.90;62.20;;;;;;4977048;28;20214;-62
2024/02/22 11:00:11;;;;;;;4.53;3.73;;;9.90;62.20;;;;;;4972233;28;20213;-64
2024/02/22 11:02:38;;;;;;;4.50;3.90;;;10.10;60.90;;;;;;4971189;28;20226;-65
2024/02/22 11:05:04;;;;;;;4.60;4.00;;;10.10;61.00;;;;;;4971670;28;20296;-64
2024/02/22 11:07:32;;;;;;;4.07;3.73;;;10.20;62.20;;;;;;4972011;28;20203;-64
2024/02/22 11:09:58;;;;;;;3.80;3.27;;;10.20;61.20;;;;;;4970946;28;20215;-64
2024/02/22 11:12:25;;;;;;;4.37;3.87;;;10.40;60.30;;;;;;4971795;28;20598;-64
2024/02/22 11:14:51;;;;;;;4.50;3.93;;;10.20;59.00;;;;;;4971495;28;20210;-63
2024/02/22 11:17:18;;;;;;;4.53;3.47;;;10.20;59.60;;;;;;4972142;28;20277;-62
2024/02/22 11:19:45;;;;;;;3.70;3.40;;;10.00;59.40;;;;;;4970688;28;20300;-65
2024/02/22 11:22:11;;;;;;;5.27;4.07;;;10.20;60.10;;;;;;4972043;28;20230;-65
2024/02/22 11:24:38;;;;;;;5.50;4.03;;;10.20;60.00;;;;;;4972493;28;20230;-64
2024/02/22 11:27:06;;;;;;;4.03;3.63;;;10.30;60.20;;;;;;4972161;28;20284;-65
2024/02/22 11:29:32;;;;;;;3.93;3.63;;;10.40;60.70;;;;;;4971844;28;20682;-64
2024/02/22 11:31:59;;;;;;;3.73;3.43;;;10.40;59.80;;;;;;4980228;28;20235;-63
2024/02/22 11:34:26;;;;;;;4.60;3.30;;;10.70;59.30;;;;;;4976672;28;20210;-63
2024/02/22 11:36:53;;;;;;;4.07;3.67;;;10.70;57.50;;;;;;4976218;28;20254;-63
2024/02/22 11:39:19;;;;;;;4.30;3.87;;;10.60;58.50;;;;;;4976411;28;20238;-65
2024/02/22 11:41:46;;;;;;;4.63;4.03;;;10.70;58.50;;;;;;4976716;28;20608;-63
2024/02/22 11:44:12;;;;;;;4.43;4.03;;;10.60;59.60;;;;;;4977044;28;20211;-65
2024/02/22 11:46:40;;;;;;;3.90;3.60;;;10.60;59.60;;;;;;4976565;28;20638;-64
2024/02/22 11:49:06;;;;;;;4.17;3.70;;;10.70;58.60;;;;;;4977696;28;20294;-64
2024/02/22 11:51:33;;;;;;;4.97;3.73;;;10.70;59.00;;;;;;4976921;28;20235;-62
2024/02/22 11:53:59;;;;;;;4.17;3.77;;;10.80;59.60;;;;;;4975139;28;20705;-64
2024/02/22 11:56:26;;;;;;;4.07;3.77;;;11.00;58.80;;;;;;4975554;28;20210;-63
2024/02/22 11:58:53;;;;;;;3.60;3.30;;;11.00;58.20;;;;;;4975094;28;20289;-64
2024/02/22 12:01:20;;;;;;;4.33;3.60;;;10.90;59.40;;;;;;4974639;28;20234;-64
2024/02/22 12:03:47;;;;;;;4.00;3.70;;;10.80;58.90;;;;;;4976481;28;20234;-64
2024/02/22 12:06:14;;;;;;;3.70;3.40;;;11.10;59.40;;;;;;4975754;28;20243;-64
2024/02/22 12:08:40;;;;;;;3.83;3.50;;;11.10;59.00;;;;;;4974896;28;20249;-64
2024/02/22 12:11:08;;;;;;;3.70;3.40;;;11.10;58.40;;;;;;4975518;28;20647;-64
2024/02/22 12:13:35;;;;;;;4.20;3.40;;;11.20;58.90;;;;;;4974274;28;20298;-64
2024/02/22 12:16:01;;;;;;;3.30;3.10;;;11.30;58.20;;;;;;4975423;28;20619;-64
2024/02/22 12:18:28;;;;;;;3.23;2.90;;;11.30;57.40;;;;;;4975321;28;20313;-64
2024/02/22 12:20:54;;;;;;;3.43;3.00;;;11.30;56.70;;;;;;4974361;28;20681;-64
2024/02/22 12:23:21;;;;;;;3.23;2.83;;;11.40;55.80;;;;;;4978582;28;20234;-64
2024/02/22 12:25:47;;;;;;;3.30;3.00;;;11.40;57.00;;;;;;4973867;28;20238;-64
2024/02/22 12:28:14;;;;;;;3.30;3.00;;;11.50;56.90;;;;;;4974594;28;20589;-64
2024/02/22 12:30:40;;;;;;;3.40;3.10;;;11.60;56.20;;;;;;4974048;28;20674;-64
2024/02/22 12:33:09;;;;;;;4.17;3.30;;;11.60;56.40;;;;;;4974512;28;20298;-64
2024/02/22 12:35:36;;;;;;;3.57;3.07;;;11.70;55.90;;;;;;4974999;28;20714;-64
2024/02/22 12:38:02;;;;;;;6.27;3.80;;;11.90;55.20;;;;;;4966050;28;20251;-64
2024/02/22 12:40:29;;;;;;;6.33;3.50;;;12.00;55.30;;;;;;4970281;28;20212;-64
2024/02/22 12:42:55;;;;;;;4.07;3.27;;;12.00;55.60;;;;;;4973635;28;20591;-64
2024/02/22 12:45:22;;;;;;;3.73;3.30;;;12.20;55.50;;;;;;4975039;28;20833;-64